Time;durP1;ratioP1;P1;durP2;ratioP2;P2;SDS_P1;SDS_P2;PMS_P1;PMS_P2;Temp;Humidity;BMP_temperature;BMP_pressure;BME280_temperature;BME280_humidity;BME280_pressure;Samples;Min_cycle;Max_cycle;Signal;HPM_P1;HPM_P2
2021/01/19 00:00:28;;;;;;;9.37;4.77;;;;;;;-144.99;100.00;52444.03;5028973;28;20637;-78
2021/01/19 00:02:54;;;;;;;8.97;6.07;;;;;;;-144.99;100.00;52515.34;5027720;28;20707;-74
2021/01/19 00:05:20;;;;;;;11.97;5.13;;;;;;;-144.99;100.00;52521.47;5028140;28;20717;-74
2021/01/19 00:07:47;;;;;;;17.70;7.63;;;;;;;-144.99;100.00;52539.81;5028055;28;20748;-76
2021/01/19 00:10:13;;;;;;;8.17;5.57;;;;;;;-144.99;100.00;52517.41;5022681;28;20739;-75
2021/01/19 00:12:39;;;;;;;9.30;6.83;;;;;;;-144.99;100.00;52543.91;5030420;28;20653;-75
2021/01/19 00:15:07;;;;;;;15.67;5.23;;;;;;;-144.99;100.00;52543.91;5027115;28;20663;-75
2021/01/19 00:17:33;;;;;;;11.47;5.40;;;;;;;-144.99;100.00;52558.16;5029584;28;20625;-75
2021/01/19 00:20:00;;;;;;;18.00;5.40;;;;;;;-144.99;100.00;52501.09;5023480;28;20727;-76
2021/01/19 00:22:26;;;;;;;13.57;6.07;;;;;;;-144.99;100.00;52525.56;5028460;28;20657;-75
2021/01/19 00:24:53;;;;;;;14.90;5.80;;;;;;;-144.99;100.00;52509.25;5029441;28;20656;-75
2021/01/19 00:27:19;;;;;;;12.23;7.23;;;;;;;-144.99;100.00;52527.59;5029115;28;20669;-76
2021/01/19 00:29:45;;;;;;;14.57;6.30;;;;;;;-144.99;100.00;52517.41;5027257;28;20699;-76
2021/01/19 00:32:11;;;;;;;9.87;6.23;;;;;;;-144.99;100.00;52541.84;5028699;28;20731;-76
2021/01/19 00:34:37;;;;;;;7.60;5.43;;;;;;;-144.99;100.00;52556.13;5027658;28;20753;-75
2021/01/19 00:37:03;;;;;;;15.83;6.73;;;;;;;-144.99;100.00;52525.56;5028845;28;20743;-76
2021/01/19 00:39:30;;;;;;;12.50;7.57;;;;;;;-144.99;100.00;52509.25;5027566;28;21246;-75
2021/01/19 00:41:57;;;;;;;11.93;6.33;;;;;;;-144.99;100.00;52525.56;5029896;28;20689;-76
2021/01/19 00:44:23;;;;;;;12.20;6.40;;;;;;;-144.99;100.00;52574.47;5027114;28;20756;-75
2021/01/19 00:46:51;;;;;;;11.73;8.63;;;;;;;-144.99;100.00;52574.47;5024479;28;20657;-75
2021/01/19 00:49:17;;;;;;;13.00;8.60;;;;;;;-144.99;100.00;52517.41;5020710;28;20971;-75
2021/01/19 00:51:43;;;;;;;12.57;8.60;;;;;;;-144.99;100.00;52525.56;5027717;28;20625;-75
2021/01/19 00:54:09;;;;;;;15.50;6.37;;;;;;;-144.99;100.00;52554.09;5028677;28;20760;-75
2021/01/19 00:56:37;;;;;;;11.27;7.10;;;;;;;-144.99;100.00;52550.00;5029539;28;20723;-75
2021/01/19 00:59:04;;;;;;;10.93;5.77;;;;;;;-144.99;100.00;52517.41;5031930;28;20656;-73
2021/01/19 01:01:30;;;;;;;16.03;8.70;;;;;;;-144.99;100.00;52531.66;5032080;28;20740;-76
2021/01/19 01:03:56;;;;;;;10.87;6.97;;;;;;;-144.99;100.00;52529.63;5026975;28;20656;-75
2021/01/19 01:06:22;;;;;;;10.73;7.27;;;;;;;-144.99;100.00;52480.72;5027713;28;20724;-75
2021/01/19 01:08:49;;;;;;;8.40;6.87;;;;;;;-144.99;100.00;52488.84;5024539;28;22007;-75
2021/01/19 01:11:16;;;;;;;9.63;6.27;;;;;;;-144.99;100.00;52513.31;5023854;28;20735;-76
2021/01/19 01:13:42;;;;;;;16.73;12.50;;;;;;;-144.99;100.00;52501.09;5022807;28;20692;-76
2021/01/19 01:16:09;;;;;;;17.73;7.50;;;;;;;-144.99;100.00;52545.94;5025498;28;21059;-75
2021/01/19 01:18:35;;;;;;;10.57;8.80;;;;;;;-144.99;100.00;52533.69;5021522;28;20732;-74
2021/01/19 01:21:02;;;;;;;14.17;7.70;;;;;;;-144.99;100.00;52497.00;5025696;28;21282;-74
2021/01/19 01:23:28;;;;;;;16.20;8.33;;;;;;;-144.99;100.00;52523.50;5025848;28;20698;-73
2021/01/19 01:25:54;;;;;;;12.67;7.07;;;;;;;-144.99;100.00;52550.00;5024937;28;20632;-73
2021/01/19 01:28:20;;;;;;;11.83;6.23;;;;;;;-144.99;100.00;52517.41;5028282;28;20740;-75
2021/01/19 01:30:46;;;;;;;18.97;8.33;;;;;;;-144.99;100.00;52533.69;5027706;28;20724;-74
2021/01/19 01:33:13;;;;;;;11.27;7.73;;;;;;;-144.99;100.00;52505.16;5027218;28;20803;-75
2021/01/19 01:35:40;;;;;;;10.33;8.30;;;;;;;-144.99;100.00;52476.63;5028783;28;20724;-74
2021/01/19 01:38:06;;;;;;;13.57;9.00;;;;;;;-144.99;100.00;52517.41;5026922;28;21000;-75
2021/01/19 01:40:32;;;;;;;16.47;10.60;;;;;;;-144.99;100.00;52529.63;5026831;28;21114;-75
2021/01/19 01:43:00;;;;;;;11.33;7.57;;;;;;;-144.99;100.00;52552.03;5028593;28;21271;-75
2021/01/19 01:45:28;;;;;;;16.17;8.83;;;;;;;-144.99;100.00;52513.31;5026067;28;20835;-76
2021/01/19 01:47:56;;;;;;;16.37;8.37;;;;;;;-144.99;100.00;52499.06;5028271;28;20632;-76
2021/01/19 01:50:24;;;;;;;17.00;10.77;;;;;;;-144.99;100.00;52484.78;5027165;28;21064;-76
2021/01/19 01:52:51;;;;;;;15.43;10.90;;;;;;;-144.99;100.00;52521.47;5019908;28;21136;-75
2021/01/19 01:55:18;;;;;;;13.67;10.07;;;;;;;-144.99;100.00;52562.25;5029058;28;21048;-76
2021/01/19 01:57:44;;;;;;;20.97;10.70;;;;;;;-144.99;100.00;52492.94;5028194;28;20751;-75
2021/01/19 02:00:13;;;;;;;16.83;10.43;;;;;;;-144.99;100.00;52545.94;5026086;28;21212;-75
2021/01/19 02:02:47;;;;;;;14.13;9.00;;;;;;;-144.99;100.00;52541.84;5027371;28;21267;-75
2021/01/19 02:05:13;;;;;;;12.43;8.83;;;;;;;-144.99;100.00;52509.25;5024087;28;21070;-76
2021/01/19 02:07:54;;;;;;;15.50;10.00;;;;;;;-144.99;100.00;52517.41;5032436;28;20636;-76
2021/01/19 02:10:26;;;;;;;12.43;8.80;;;;;;;-144.99;100.00;52558.16;5031836;28;20631;-75
2021/01/19 02:12:57;;;;;;;14.43;10.57;;;;;;;-144.99;100.00;52556.13;5032509;28;21261;-74
2021/01/19 02:15:36;;;;;;;16.93;9.33;;;;;;;-144.99;100.00;52550.00;5031302;28;20636;-75
2021/01/19 02:18:12;;;;;;;18.17;10.83;;;;;;;-144.99;100.00;52541.84;5024964;28;20711;-78
2021/01/19 02:20:58;;;;;;;23.30;12.97;;;;;;;-144.99;100.00;52501.09;5022238;28;20681;-77
2021/01/19 02:23:49;;;;;;;14.20;9.83;;;;;;;-144.99;100.00;52521.47;5027495;28;20710;-75
2021/01/19 02:26:48;;;;;;;15.63;10.07;;;;;;;-144.99;100.00;52517.41;5030545;28;20648;-77
2021/01/19 02:29:31;;;;;;;16.90;10.37;;;;;;;-144.99;100.00;52521.47;5019837;28;20985;-78
2021/01/19 02:32:13;;;;;;;17.20;11.97;;;;;;;-144.99;100.00;52570.38;5020103;28;20632;-76
2021/01/19 02:34:46;;;;;;;15.43;10.87;;;;;;;-144.99;100.00;52529.63;5028391;28;20668;-78
2021/01/19 02:37:17;;;;;;;19.03;12.50;;;;;;;-144.99;100.00;52527.59;5031101;28;20625;-77
2021/01/19 02:39:48;;;;;;;17.97;11.83;;;;;;;-144.99;100.00;52501.09;5032468;28;20703;-77
2021/01/19 02:42:19;;;;;;;17.73;12.73;;;;;;;-144.99;100.00;52492.94;5033204;28;21261;-77
2021/01/19 02:44:47;;;;;;;15.57;12.03;;;;;;;-144.99;100.00;52531.66;5023631;28;20701;-77
2021/01/19 02:47:14;;;;;;;14.17;11.20;;;;;;;-144.99;100.00;52547.97;5032243;28;21066;-77
2021/01/19 02:49:42;;;;;;;20.27;14.97;;;;;;;-144.99;100.00;52503.13;5027044;28;21248;-78
2021/01/19 02:52:09;;;;;;;18.67;13.17;;;;;;;-144.99;100.00;52521.47;5032265;28;20634;-78
2021/01/19 02:54:37;;;;;;;22.87;16.20;;;;;;;-144.99;100.00;52515.34;5024776;28;20680;-78
2021/01/19 02:57:18;;;;;;;20.47;14.50;;;;;;;-144.99;100.00;52521.47;5027690;28;21206;-77
2021/01/19 02:59:54;;;;;;;24.00;14.07;;;;;;;-144.99;100.00;52521.47;5029445;28;20796;-78
2021/01/19 03:02:25;;;;;;;21.17;14.97;;;;;;;-144.99;100.00;52517.41;5027676;28;20687;-78
2021/01/19 03:04:53;;;;;;;16.13;12.57;;;;;;;-144.99;100.00;52505.16;5027442;28;21097;-78
2021/01/19 03:07:25;;;;;;;18.03;14.53;;;;;;;-144.99;100.00;52529.63;5026404;28;21053;-76
2021/01/19 03:09:52;;;;;;;21.97;14.30;;;;;;;-144.99;100.00;52566.31;5028307;28;21207;-77
2021/01/19 03:12:20;;;;;;;20.17;15.37;;;;;;;-144.99;100.00;52525.56;5032418;28;20637;-76
2021/01/19 03:14:46;;;;;;;22.37;19.97;;;;;;;-144.99;100.00;52529.63;5028523;28;20664;-75
2021/01/19 03:17:13;;;;;;;20.50;15.40;;;;;;;-144.99;100.00;52521.47;5030639;28;20632;-76
2021/01/19 03:19:42;;;;;;;22.33;15.87;;;;;;;-144.99;100.00;52509.25;5026916;28;21139;-77
2021/01/19 03:22:09;;;;;;;22.63;15.63;;;;;;;-144.99;100.00;52513.31;5031139;28;20741;-76
2021/01/19 03:24:35;;;;;;;26.30;18.40;;;;;;;-144.99;100.00;52509.25;5028302;28;20710;-76
2021/01/19 03:27:01;;;;;;;28.37;21.33;;;;;;;-144.99;100.00;52554.09;5029961;28;20694;-76
2021/01/19 03:29:27;;;;;;;20.80;16.77;;;;;;;-144.99;100.00;52539.81;5025363;28;20735;-75
2021/01/19 03:31:54;;;;;;;28.77;20.13;;;;;;;-144.99;100.00;52505.16;5024690;28;20624;-77
2021/01/19 03:34:21;;;;;;;28.33;22.10;;;;;;;-144.99;100.00;52460.31;5029608;28;20668;-76
2021/01/19 03:36:48;;;;;;;26.63;19.20;;;;;;;-144.99;100.00;52521.47;5027924;28;20798;-74
2021/01/19 03:39:14;;;;;;;35.10;21.97;;;;;;;-144.99;100.00;52541.84;5030146;28;20724;-75
2021/01/19 03:41:40;;;;;;;26.20;19.30;;;;;;;-144.99;100.00;52492.94;5030917;28;20676;-75
2021/01/19 03:44:07;;;;;;;26.10;19.43;;;;;;;-144.99;100.00;52484.78;5030737;28;20767;-76
2021/01/19 03:46:34;;;;;;;29.57;19.73;;;;;;;-144.99;100.00;52562.25;5025865;28;20648;-76
2021/01/19 03:49:00;;;;;;;25.93;19.33;;;;;;;-144.99;100.00;52527.59;5021812;28;20850;-75
2021/01/19 03:51:27;;;;;;;30.40;20.80;;;;;;;-144.99;100.00;52511.28;5030108;28;20644;-76
2021/01/19 03:53:54;;;;;;;29.13;21.70;;;;;;;-144.99;100.00;52513.31;5030356;28;20752;-75
2021/01/19 03:56:20;;;;;;;29.17;22.87;;;;;;;-144.99;100.00;52527.59;5021561;28;20665;-75
2021/01/19 03:58:47;;;;;;;28.57;20.90;;;;;;;-144.99;100.00;52537.78;5025836;28;20667;-74
2021/01/19 04:01:13;;;;;;;25.93;22.57;;;;;;;-144.99;100.00;52519.44;5030744;28;20729;-75
2021/01/19 04:03:39;;;;;;;28.23;21.00;;;;;;;-144.99;100.00;52521.47;5026087;28;20673;-77
2021/01/19 04:06:07;;;;;;;28.83;19.30;;;;;;;-144.99;100.00;52539.81;5028684;28;20695;-76
2021/01/19 04:08:33;;;;;;;32.80;21.47;;;;;;;-144.99;100.00;52484.78;5029968;28;21025;-76
2021/01/19 04:11:01;;;;;;;26.13;19.80;;;;;;;-144.99;100.00;52490.91;5018841;28;20641;-75
2021/01/19 04:13:27;;;;;;;27.07;20.70;;;;;;;-144.99;100.00;52541.84;5026168;28;21283;-77
2021/01/19 04:15:53;;;;;;;24.57;19.43;;;;;;;-144.99;100.00;52484.78;5030608;28;20656;-76
2021/01/19 04:18:20;;;;;;;29.20;23.23;;;;;;;-144.99;100.00;52497.00;5022128;28;20733;-74
2021/01/19 04:20:46;;;;;;;27.20;19.77;;;;;;;-144.99;100.00;52537.78;5026882;28;20625;-74
2021/01/19 04:23:14;;;;;;;28.97;21.07;;;;;;;-144.99;100.00;52537.78;5025459;28;21117;-75
2021/01/19 04:25:40;;;;;;;27.73;20.70;;;;;;;-144.99;100.00;52533.69;5028690;28;21112;-75
2021/01/19 04:28:07;;;;;;;28.73;20.23;;;;;;;-144.99;100.00;52541.84;5027463;28;20743;-75
2021/01/19 04:30:33;;;;;;;31.30;23.20;;;;;;;-144.99;100.00;52472.56;5025787;28;20671;-75
2021/01/19 04:32:59;;;;;;;24.33;19.53;;;;;;;-144.99;100.00;52537.78;5029284;28;21194;-74
2021/01/19 04:35:25;;;;;;;30.90;25.57;;;;;;;-144.99;100.00;52525.56;5021978;28;20749;-74
2021/01/19 04:37:52;;;;;;;28.10;20.33;;;;;;;-144.99;100.00;52570.38;5030166;28;20651;-74
2021/01/19 04:40:18;;;;;;;25.10;21.63;;;;;;;-144.99;100.00;52517.41;5027911;28;20686;-74
2021/01/19 04:42:44;;;;;;;29.10;20.63;;;;;;;-144.99;100.00;52505.16;5031695;28;20676;-75
2021/01/19 04:45:12;;;;;;;24.37;19.63;;;;;;;-144.99;100.00;52550.00;5029454;28;20731;-75
2021/01/19 04:47:39;;;;;;;31.03;21.27;;;;;;;-144.99;100.00;52550.00;5029227;28;20664;-75
2021/01/19 04:50:07;;;;;;;24.63;18.70;;;;;;;-144.99;100.00;52537.78;5021347;28;20771;-76
2021/01/19 04:52:34;;;;;;;25.40;18.30;;;;;;;-144.99;100.00;52521.47;5030431;28;20617;-76
2021/01/19 04:55:06;;;;;;;24.77;19.40;;;;;;;-144.99;100.00;52525.56;5020754;28;20698;-76
2021/01/19 04:57:33;;;;;;;24.00;18.17;;;;;;;-144.99;100.00;52533.69;5028523;28;21089;-78
2021/01/19 05:00:03;;;;;;;25.83;19.63;;;;;;;-144.99;100.00;52521.47;5026014;28;20647;-78
2021/01/19 05:03:05;;;;;;;23.03;18.73;;;;;;;-144.99;100.00;52513.31;5028623;28;20702;-76
2021/01/19 05:05:58;;;;;;;18.43;15.60;;;;;;;-144.99;100.00;52523.50;5026891;28;20624;-77
2021/01/19 05:08:34;;;;;;;21.60;14.57;;;;;;;-144.99;100.00;52529.63;5030585;28;20625;-76
2021/01/19 05:11:01;;;;;;;23.53;17.00;;;;;;;-144.99;100.00;52511.28;5022329;28;21003;-77
2021/01/19 05:13:49;;;;;;;23.53;17.43;;;;;;;-144.99;100.00;52539.81;5026362;28;20665;-76
2021/01/19 05:16:18;;;;;;;22.37;15.27;;;;;;;-144.99;100.00;52537.78;5029218;28;20633;-76
2021/01/19 05:18:45;;;;;;;19.90;13.97;;;;;;;-144.99;100.00;52539.81;5028937;28;21206;-76
2021/01/19 05:21:12;;;;;;;17.77;13.80;;;;;;;-144.99;100.00;52521.47;5029256;28;20632;-78
2021/01/19 05:23:39;;;;;;;15.50;11.77;;;;;;;-144.99;100.00;52533.69;5034455;28;20700;-75
2021/01/19 05:26:06;;;;;;;17.67;13.77;;;;;;;-144.99;100.00;52550.00;5038452;28;20731;-76
2021/01/19 05:28:36;;;;;;;16.00;11.73;;;;;;;-144.99;100.00;52525.56;5040810;28;20653;-76
2021/01/19 05:31:05;;;;;;;16.50;12.90;;;;;;;-144.99;100.00;52525.56;5036433;28;20633;-76
2021/01/19 05:33:31;;;;;;;14.60;10.87;;;;;;;-144.99;100.00;52582.63;5034855;28;20672;-77
2021/01/19 05:36:11;;;;;;;15.87;12.27;;;;;;;-144.99;100.00;52541.84;5031172;28;20715;-77
2021/01/19 05:38:49;;;;;;;15.97;12.80;;;;;;;-144.99;100.00;52578.53;5030916;28;20649;-78
2021/01/19 05:41:26;;;;;;;17.23;13.87;;;;;;;-144.99;100.00;52503.13;5029287;28;20724;-78
2021/01/19 05:43:53;;;;;;;13.47;10.33;;;;;;;-144.99;100.00;52521.47;5026863;28;20991;-77
2021/01/19 05:46:27;;;;;;;13.87;11.17;;;;;;;-144.99;100.00;52505.16;5027242;28;21232;-78
2021/01/19 05:48:59;;;;;;;15.90;12.17;;;;;;;-144.99;100.00;52509.25;5016326;28;20708;-75
2021/01/19 05:51:32;;;;;;;19.13;13.43;;;;;;;-144.99;100.00;52515.34;5028787;28;20664;-77
2021/01/19 05:53:59;;;;;;;15.60;12.70;;;;;;;-144.99;100.00;52525.56;5029624;28;20678;-76
2021/01/19 05:56:27;;;;;;;15.00;11.03;;;;;;;-144.99;100.00;52521.47;5025142;28;20804;-75
2021/01/19 05:58:54;;;;;;;13.03;10.03;;;;;;;-144.99;100.00;52486.81;5028928;28;21188;-76
2021/01/19 06:01:29;;;;;;;17.43;11.87;;;;;;;-144.99;100.00;52517.41;5028408;28;20715;-76
2021/01/19 06:04:06;;;;;;;11.60;9.20;;;;;;;-144.99;100.00;52545.94;4702847;28;10000364;-76
2021/01/19 06:06:33;;;;;;;13.27;9.87;;;;;;;-144.99;100.00;52523.50;4677337;28;10001045;-74
2021/01/19 06:09:01;;;;;;;12.57;8.90;;;;;;;-144.99;100.00;52484.78;5019499;28;20627;-76
2021/01/19 06:11:28;;;;;;;11.97;10.27;;;;;;;-144.99;100.00;52537.78;5026293;28;20664;-76
2021/01/19 06:13:55;;;;;;;11.03;8.63;;;;;;;-144.99;100.00;52568.34;5024687;28;21237;-75
2021/01/19 06:16:25;;;;;;;11.07;8.33;;;;;;;-144.99;100.00;52517.41;5026549;28;20720;-75
2021/01/19 06:18:51;;;;;;;11.27;8.97;;;;;;;-144.99;100.00;52505.16;5025264;28;20635;-73
2021/01/19 06:21:28;;;;;;;11.27;8.97;;;;;;;-144.99;100.00;52525.56;5026518;28;20656;-76
2021/01/19 06:23:54;;;;;;;9.47;7.33;;;;;;;-144.99;100.00;52574.47;5025163;28;20679;-77
2021/01/19 06:26:22;;;;;;;9.07;7.00;;;;;;;-144.99;100.00;52521.47;5025136;28;20666;-77
2021/01/19 06:28:48;;;;;;;9.20;6.93;;;;;;;-144.99;100.00;52545.94;5022155;28;20727;-74
2021/01/19 06:31:17;;;;;;;12.27;8.23;;;;;;;-144.99;100.00;52513.31;5022897;28;20672;-73
2021/01/19 06:33:47;;;;;;;8.73;7.20;;;;;;;-144.99;100.00;52525.56;5012789;28;20679;-76
2021/01/19 06:36:16;;;;;;;10.33;7.57;;;;;;;-144.99;100.00;52547.97;5014464;28;20640;-74
2021/01/19 06:38:44;;;;;;;7.43;6.50;;;;;;;-144.99;100.00;52527.59;5025226;28;20687;-76
2021/01/19 06:41:15;;;;;;;14.30;8.90;;;;;;;-144.99;100.00;52509.25;5023427;28;20680;-76
2021/01/19 06:43:46;;;;;;;8.90;7.20;;;;;;;-144.99;100.00;52509.25;5025567;28;20660;-74
2021/01/19 06:46:14;;;;;;;7.07;5.90;;;;;;;-144.99;100.00;52539.81;5022776;28;20794;-74
2021/01/19 06:48:42;;;;;;;8.80;7.60;;;;;;;-144.99;100.00;52529.63;5028984;28;20666;-74
2021/01/19 06:51:11;;;;;;;6.83;6.13;;;;;;;-144.99;100.00;52576.50;5027114;28;21226;-74
2021/01/19 06:53:43;;;;;;;8.47;6.90;;;;;;;-144.99;100.00;52529.63;5029559;28;20649;-74
2021/01/19 06:56:14;;;;;;;8.47;6.30;;;;;;;-144.99;100.00;52484.78;5029668;28;21306;-74
2021/01/19 06:58:48;;;;;;;8.97;8.07;;;;;;;-144.99;100.00;52525.56;5028369;28;20652;-74
2021/01/19 07:01:16;;;;;;;11.60;8.10;;;;;;;-144.99;100.00;52554.09;5028550;28;20624;-74
2021/01/19 07:03:43;;;;;;;9.43;7.53;;;;;;;-144.99;100.00;52521.47;5028105;28;20750;-75
2021/01/19 07:06:10;;;;;;;12.87;7.60;;;;;;;-144.99;100.00;52594.84;5027883;28;20723;-75
2021/01/19 07:09:09;;;;;;;13.40;9.00;;;;;;;-144.99;100.00;52550.00;5029283;28;20666;-75
2021/01/19 07:11:58;;;;;;;9.73;7.93;;;;;;;-144.99;100.00;52533.69;5029607;28;20689;-76
2021/01/19 07:14:38;;;;;;;8.57;7.57;;;;;;;-144.99;100.00;52541.84;5026876;28;20698;-77
2021/01/19 07:17:07;;;;;;;10.67;8.73;;;;;;;-144.99;100.00;52511.28;5029121;28;20617;-75
2021/01/19 07:19:44;;;;;;;9.37;7.90;;;;;;;-144.99;100.00;52545.94;5026487;28;21189;-75
2021/01/19 07:22:13;;;;;;;13.67;10.53;;;;;;;-144.99;100.00;52521.47;5028825;28;20751;-74
2021/01/19 07:24:42;;;;;;;9.27;8.23;;;;;;;-144.99;100.00;52537.78;5029055;28;20652;-75
2021/01/19 07:27:10;;;;;;;10.57;8.40;;;;;;;-144.99;100.00;52501.09;5028540;28;20682;-75
2021/01/19 07:29:38;;;;;;;11.17;8.43;;;;;;;-144.99;100.00;52541.84;5028584;28;20640;-75
2021/01/19 07:32:09;;;;;;;9.03;8.03;;;;;;;-144.99;100.00;52550.00;5031225;28;20651;-75
2021/01/19 07:34:37;;;;;;;9.63;7.93;;;;;;;-144.99;100.00;52525.56;5074642;22;21327;-73
2021/01/19 07:37:04;;;;;;;12.87;8.10;;;;;;;-144.99;100.00;52521.47;5084371;28;20657;-73
2021/01/19 07:39:32;;;;;;;6.73;5.70;;;;;;;-144.99;100.00;52521.47;5068397;28;20833;-72
2021/01/19 07:42:09;;;;;;;10.83;7.80;;;;;;;-144.99;100.00;52521.47;5071353;28;20681;-72
2021/01/19 07:44:35;;;;;;;9.53;8.27;;;;;;;-144.99;100.00;52503.13;5066622;28;20681;-74
2021/01/19 07:47:12;;;;;;;11.87;9.10;;;;;;;-144.99;100.00;52533.69;5083912;28;20646;-73
2021/01/19 07:49:38;;;;;;;10.20;7.63;;;;;;;-144.99;100.00;52517.41;5085007;28;20984;-72
2021/01/19 07:52:10;;;;;;;12.43;7.83;;;;;;;-144.99;100.00;52517.41;5066707;28;20725;-73
2021/01/19 07:54:36;;;;;;;9.97;7.57;;;;;;;-144.99;100.00;52513.31;5067268;28;20654;-72
2021/01/19 07:57:13;;;;;;;9.20;7.33;;;;;;;-144.99;100.00;52533.69;5066333;28;20622;-73
2021/01/19 07:59:40;;;;;;;11.60;8.27;;;;;;;-144.99;100.00;52533.69;5078230;28;20721;-72
2021/01/19 08:02:08;;;;;;;9.07;7.17;;;;;;;-144.99;100.00;52562.25;5087560;28;20681;-73
2021/01/19 08:04:35;;;;;;;10.33;7.80;;;;;;;-144.99;100.00;52594.84;5082084;28;20668;-73
2021/01/19 08:07:13;;;;;;;10.60;6.53;;;;;;;-144.99;100.00;52505.16;5066450;28;20994;-74
2021/01/19 08:09:39;;;;;;;11.20;8.57;;;;;;;-144.99;100.00;52558.16;5066155;28;21307;-73
2021/01/19 08:12:08;;;;;;;12.00;5.90;;;;;;;-144.99;100.00;52529.63;5068859;28;20630;-72
2021/01/19 08:14:39;;;;;;;7.27;5.77;;;;;;;-144.99;100.00;52541.84;5067802;28;20666;-72
2021/01/19 08:17:05;;;;;;;11.27;6.33;;;;;;;-144.99;100.00;52517.41;5066466;28;20722;-72
2021/01/19 08:19:37;;;;;;;10.17;6.13;;;;;;;-144.99;100.00;52531.66;5078088;28;20619;-73
2021/01/19 08:22:04;;;;;;;13.03;6.17;;;;;;;-144.99;100.00;52478.66;5076505;28;20634;-74
2021/01/19 08:24:30;;;;;;;12.50;6.70;;;;;;;-144.99;100.00;52523.50;5066917;28;20686;-73
2021/01/19 08:26:57;;;;;;;14.07;5.50;;;;;;;-144.99;100.00;52558.16;5076205;28;20634;-72
2021/01/19 08:29:24;;;;;;;9.97;6.73;;;;;;;-144.99;100.00;52517.41;5065309;28;20627;-72
2021/01/19 08:31:52;;;;;;;7.17;5.97;;;;;;;-144.99;100.00;52582.63;5065155;28;21198;-71
2021/01/19 08:34:19;;;;;;;5.27;4.37;;;;;;;-144.99;100.00;52488.84;5064201;28;20667;-72
2021/01/19 08:36:47;;;;;;;7.80;4.97;;;;;;;-144.99;100.00;52541.84;5072619;28;20749;-72
2021/01/19 08:39:16;;;;;;;5.53;4.57;;;;;;;-144.99;100.00;52550.00;5067124;28;21218;-73
2021/01/19 08:41:44;;;;;;;7.03;4.50;;;;;;;-144.99;100.00;52513.31;5072348;28;20611;-72
2021/01/19 08:44:11;;;;;;;8.00;6.67;;;;;;;-144.99;100.00;52525.56;5064890;28;20753;-73
2021/01/19 08:46:38;;;;;;;9.80;4.60;;;;;;;-144.99;100.00;52525.56;5065534;28;20618;-72
2021/01/19 08:49:05;;;;;;;7.33;4.93;;;;;;;-144.99;100.00;52497.00;5063082;28;20627;-75
2021/01/19 08:51:31;;;;;;;7.00;4.87;;;;;;;-144.99;100.00;52497.00;5068214;28;21093;-73
2021/01/19 08:53:58;;;;;;;7.73;4.60;;;;;;;-144.99;100.00;52525.56;5071353;28;20633;-73
2021/01/19 08:56:26;;;;;;;6.33;3.43;;;;;;;-144.99;100.00;52545.94;5084304;28;20709;-74
2021/01/19 08:58:53;;;;;;;7.27;4.20;;;;;;;-144.99;100.00;52509.25;5069918;28;20637;-72
2021/01/19 09:01:20;;;;;;;6.57;3.40;;;;;;;-144.99;100.00;52541.84;5085700;28;20995;-73
2021/01/19 09:03:57;;;;;;;3.97;2.53;;;;;;;-144.99;100.00;52523.50;5074524;28;20658;-71
2021/01/19 09:06:23;;;;;;;5.37;2.40;;;;;;;-144.99;100.00;52521.47;5067286;28;20635;-72
2021/01/19 09:08:58;;;;;;;5.97;3.30;;;;;;;-144.99;100.00;52521.47;5084350;28;21274;-73
2021/01/19 09:11:30;;;;;;;3.40;2.47;;;;;;;-144.99;100.00;52558.16;5071444;28;20606;-74
2021/01/19 09:14:03;;;;;;;4.00;2.63;;;;;;;-144.99;100.00;52554.09;5073942;28;20614;-72
2021/01/19 09:16:31;;;;;;;7.33;3.43;;;;;;;-144.99;100.00;52523.50;5067319;28;20653;-71
2021/01/19 09:18:59;;;;;;;3.50;2.80;;;;;;;-144.99;100.00;52505.16;5076282;28;20645;-72
2021/01/19 09:21:26;;;;;;;3.07;2.20;;;;;;;-144.99;100.00;52533.69;5065263;28;20642;-73
2021/01/19 09:23:53;;;;;;;5.57;3.63;;;;;;;-144.99;100.00;52497.00;5077208;28;21070;-72
2021/01/19 09:26:19;;;;;;;5.13;3.57;;;;;;;-144.99;100.00;52525.56;5078469;28;20792;-73
2021/01/19 09:28:47;;;;;;;3.70;2.30;;;;;;;-144.99;100.00;52545.94;5080987;28;21004;-69
2021/01/19 09:31:16;;;;;;;3.97;2.43;;;;;;;-144.99;100.00;52529.63;5077654;28;20655;-72
2021/01/19 09:33:44;;;;;;;5.00;2.37;;;;;;;-144.99;100.00;52505.16;5063904;28;20649;-73
2021/01/19 09:36:11;;;;;;;3.23;2.27;;;;;;;-144.99;100.00;52554.09;5064253;28;20697;-71
2021/01/19 09:38:39;;;;;;;2.63;2.20;;;;;;;-144.99;100.00;52519.44;5079244;28;20716;-72
2021/01/19 09:41:06;;;;;;;2.47;2.07;;;;;;;-144.99;100.00;52517.41;5070595;28;20664;-74
2021/01/19 09:43:33;;;;;;;2.73;2.40;;;;;;;-144.99;100.00;52550.00;5082786;28;20661;-72
2021/01/19 09:46:02;;;;;;;4.20;2.73;;;;;;;-144.99;100.00;52480.72;5065202;28;20675;-73
2021/01/19 09:48:31;;;;;;;3.23;2.27;;;;;;;-144.99;100.00;52497.00;5068487;28;20726;-72
2021/01/19 09:51:02;;;;;;;5.60;3.47;;;;;;;-144.99;100.00;52480.72;5084740;28;20670;-75
2021/01/19 09:53:32;;;;;;;3.90;3.00;;;;;;;-144.99;100.00;52552.03;5080383;28;20617;-75
2021/01/19 09:55:58;;;;;;;3.23;2.23;;;;;;;-144.99;100.00;52552.03;5086031;28;20744;-74
2021/01/19 09:58:26;;;;;;;3.60;2.53;;;;;;;-144.99;100.00;52525.56;5084064;28;20730;-75
2021/01/19 10:00:53;;;;;;;4.77;1.80;;;;;;;-144.99;100.00;52509.25;5076368;28;20638;-73
2021/01/19 10:03:25;;;;;;;2.53;1.93;;;;;;;-144.99;100.00;52513.31;5077274;28;20746;-72
2021/01/19 10:05:59;;;;;;;4.30;2.43;;;;;;;-144.99;100.00;52529.63;5064814;28;20653;-72
2021/01/19 10:08:26;;;;;;;2.30;2.03;;;;;;;-144.99;100.00;52513.31;5073473;28;20637;-74
2021/01/19 10:10:52;;;;;;;4.73;2.13;;;;;;;-144.99;100.00;52529.63;5072431;28;21258;-73
2021/01/19 10:13:24;;;;;;;4.97;2.47;;;;;;;-144.99;100.00;52529.63;5068117;28;20671;-72
2021/01/19 10:15:58;;;;;;;3.47;2.13;;;;;;;-144.99;100.00;52533.69;5068092;28;20642;-70
2021/01/19 10:18:25;;;;;;;4.77;2.10;;;;;;;-144.99;100.00;52492.94;5064472;28;21243;-76
2021/01/19 10:20:51;;;;;;;2.33;1.47;;;;;;;-144.99;100.00;52505.16;5064218;28;20655;-73
2021/01/19 10:23:26;;;;;;;3.83;2.00;;;;;;;-144.99;100.00;52511.28;5070892;28;20635;-72
2021/01/19 10:25:55;;;;;;;4.57;2.70;;;;;;;-144.99;100.00;52550.00;5079308;28;20650;-70
2021/01/19 10:28:24;;;;;;;4.43;2.20;;;;;;;-144.99;100.00;52488.84;5083962;28;20756;-71
2021/01/19 10:30:51;;;;;;;2.30;1.63;;;;;;;-144.99;100.00;52509.25;5081301;28;21276;-74
2021/01/19 10:33:27;;;;;;;3.93;1.83;;;;;;;-144.99;100.00;52509.25;5082263;28;20788;-72
2021/01/19 10:35:53;;;;;;;3.30;1.63;;;;;;;-144.99;100.00;52533.69;5084363;28;20780;-74
2021/01/19 10:38:26;;;;;;;3.60;1.70;;;;;;;-144.99;100.00;52509.25;5076250;28;21269;-74
2021/01/19 10:40:53;;;;;;;2.33;1.87;;;;;;;-144.99;100.00;52533.69;5083572;28;21063;-74
2021/01/19 10:43:19;;;;;;;2.20;2.00;;;;;;;-144.99;100.00;52531.66;5085648;28;20662;-73
2021/01/19 10:45:46;;;;;;;1.93;1.57;;;;;;;-144.99;100.00;52529.63;5086727;28;21065;-73
2021/01/19 10:48:20;;;;;;;4.30;1.63;;;;;;;-144.99;100.00;52517.41;5087395;28;20690;-73
2021/01/19 10:50:47;;;;;;;3.87;2.00;;;;;;;-144.99;100.00;52541.84;5074177;28;20648;-71
2021/01/19 10:53:13;;;;;;;5.10;2.20;;;;;;;-144.99;100.00;52464.41;5067896;28;20626;-71
2021/01/19 10:55:39;;;;;;;5.17;2.80;;;;;;;-144.99;100.00;52533.69;5078322;28;20704;-73
2021/01/19 10:58:06;;;;;;;3.63;2.43;;;;;;;-144.99;100.00;52533.69;5088320;28;20664;-74
2021/01/19 11:00:34;;;;;;;2.13;1.60;;;;;;;-144.99;100.00;52509.25;5081105;28;20626;-72
2021/01/19 11:03:01;;;;;;;4.67;2.00;;;;;;;-144.99;100.00;52550.00;5067142;28;20694;-73
2021/01/19 11:05:28;;;;;;;6.67;2.63;;;;;;;-144.99;100.00;52550.00;5066767;28;20658;-74
2021/01/19 11:07:56;;;;;;;3.40;1.93;;;;;;;-144.99;100.00;52521.47;5082107;28;20645;-72
2021/01/19 11:10:23;;;;;;;4.40;1.97;;;;;;;-144.99;100.00;52529.63;5073086;28;20674;-71